createdAt,value
2023-04-13T00:01:11.548Z,1.30
2023-04-13T00:03:39.729Z,2.38
2023-04-13T00:06:11.110Z,4.78
2023-04-13T00:08:38.641Z,4.13
2023-04-13T00:11:08.356Z,2.78
2023-04-13T00:13:41.570Z,3.95
2023-04-13T00:16:13.421Z,2.38
2023-04-13T00:18:40.307Z,3.70
2023-04-13T00:21:07.702Z,2.80
2023-04-13T00:23:36.363Z,1.40
2023-04-13T00:26:03.333Z,4.15
2023-04-13T00:28:30.279Z,1.60
2023-04-13T00:30:57.249Z,3.05
2023-04-13T00:33:24.316Z,2.42
2023-04-13T00:35:51.847Z,1.85
2023-04-13T00:38:18.661Z,1.75
2023-04-13T00:40:45.973Z,2.45
2023-04-13T00:43:12.920Z,2.65
2023-04-13T00:45:40.117Z,6.10
2023-04-13T00:48:12.475Z,6.30
2023-04-13T00:50:40.412Z,3.80
2023-04-13T00:53:10.969Z,3.65
2023-04-13T00:55:40.586Z,6.18
2023-04-13T00:58:08.159Z,4.82
2023-04-13T01:00:39.222Z,3.30
2023-04-13T01:03:06.584Z,6.60
2023-04-13T01:05:49.150Z,3.90
2023-04-13T01:08:29.667Z,2.35
2023-04-13T01:11:07.219Z,2.47
2023-04-13T01:13:52.848Z,4.25
2023-04-13T01:16:23.779Z,4.25
2023-04-13T01:18:54.183Z,3.92
2023-04-13T01:21:26.224Z,3.53
2023-04-13T01:24:17.990Z,3.17
2023-04-13T01:27:06.420Z,6.03
2023-04-13T01:29:35.269Z,2.30
2023-04-13T01:32:02.959Z,3.00
2023-04-13T01:34:30.208Z,4.57
2023-04-13T01:36:57.521Z,3.33
2023-04-13T01:39:32.141Z,3.10
2023-04-13T01:41:59.682Z,3.28
2023-04-13T01:44:32.491Z,4.22
2023-04-13T01:47:15.983Z,2.38
2023-04-13T01:49:55.236Z,2.65
2023-04-13T01:52:24.465Z,4.50
2023-04-13T01:54:52.109Z,3.60
2023-04-13T01:57:19.847Z,4.93
2023-04-13T01:59:47.041Z,2.03
2023-04-13T02:02:16.957Z,4.93
2023-04-13T02:04:43.981Z,3.85
2023-04-13T02:07:12.601Z,2.63
2023-04-13T02:09:39.743Z,2.28
2023-04-13T02:12:07.080Z,2.08
2023-04-13T02:14:33.842Z,4.88
2023-04-13T02:17:01.996Z,3.22
2023-04-13T02:19:30.711Z,3.03
2023-04-13T02:21:57.531Z,2.47
2023-04-13T02:24:24.863Z,2.45
2023-04-13T02:26:51.675Z,3.75
2023-04-13T02:29:19.932Z,3.03
2023-04-13T02:31:46.803Z,3.25
2023-04-13T02:34:13.602Z,4.15
2023-04-13T02:36:43.015Z,1.05
2023-04-13T02:39:09.823Z,4.90
2023-04-13T02:41:36.643Z,3.47
2023-04-13T02:44:03.490Z,4.82
2023-04-13T02:46:32.663Z,2.88
2023-04-13T02:49:00.134Z,2.75
2023-04-13T02:51:28.115Z,3.75
2023-04-13T02:53:57.819Z,1.55
2023-04-13T02:56:28.681Z,2.58
2023-04-13T02:58:55.770Z,4.43
2023-04-13T03:01:25.824Z,1.45
2023-04-13T03:03:52.801Z,3.92
2023-04-13T03:06:19.584Z,4.22
2023-04-13T03:08:46.424Z,3.33
2023-04-13T03:11:13.192Z,4.95
2023-04-13T03:13:39.990Z,5.40
2023-04-13T03:16:07.142Z,3.08
2023-04-13T03:18:33.897Z,3.97
2023-04-13T03:21:02.052Z,4.18
2023-04-13T03:23:29.530Z,4.07
2023-04-13T03:25:56.373Z,4.15
2023-04-13T03:28:23.905Z,6.20
2023-04-13T03:30:51.815Z,4.78
2023-04-13T03:33:18.656Z,4.38
2023-04-13T03:35:47.153Z,6.85
2023-04-13T03:38:15.971Z,7.95
2023-04-13T03:40:42.782Z,5.93
2023-04-13T03:43:10.292Z,4.95
2023-04-13T03:45:37.187Z,7.47
2023-04-13T03:48:06.114Z,3.90
2023-04-13T03:50:33.093Z,2.28
2023-04-13T03:53:01.516Z,6.35
2023-04-13T03:55:29.164Z,3.67
2023-04-13T03:57:56.070Z,5.47
2023-04-13T04:00:23.016Z,6.68
2023-04-13T04:02:50.017Z,4.60
2023-04-13T04:05:18.666Z,3.10
2023-04-13T04:07:45.540Z,3.25
2023-04-13T04:10:12.372Z,3.55
2023-04-13T04:12:39.191Z,6.95
2023-04-13T04:15:07.978Z,3.65
2023-04-13T04:17:36.064Z,4.05
2023-04-13T04:20:06.320Z,3.70
2023-04-13T04:22:38.559Z,4.18
2023-04-13T04:25:06.587Z,3.15
2023-04-13T04:27:38.404Z,3.97
2023-04-13T04:30:06.444Z,1.90
2023-04-13T04:32:37.040Z,2.75
2023-04-13T04:35:05.187Z,3.10
2023-04-13T04:37:37.829Z,4.22
2023-04-13T04:40:09.692Z,4.30
2023-04-13T04:42:40.051Z,4.95
2023-04-13T04:45:07.478Z,6.22
2023-04-13T04:47:53.583Z,2.22
2023-04-13T04:50:22.091Z,6.20
2023-04-13T04:52:48.996Z,4.68
2023-04-13T04:55:16.053Z,2.88
2023-04-13T04:57:49.448Z,5.68
2023-04-13T05:00:17.057Z,6.50
2023-04-13T05:02:45.845Z,2.78
2023-04-13T05:05:14.491Z,5.32
2023-04-13T05:07:41.313Z,3.92
2023-04-13T05:10:10.253Z,5.03
2023-04-13T05:12:37.858Z,2.65
2023-04-13T05:15:05.369Z,4.07
2023-04-13T05:17:32.765Z,1.17
2023-04-13T05:19:59.572Z,4.93
2023-04-13T05:22:28.365Z,2.97
2023-04-13T05:24:55.179Z,6.95
2023-04-13T05:27:22.144Z,4.43
2023-04-13T05:29:48.952Z,4.40
2023-04-13T05:32:15.791Z,4.13
2023-04-13T05:34:42.629Z,3.33
2023-04-13T05:37:10.626Z,6.15
2023-04-13T05:39:38.046Z,5.80
2023-04-13T05:42:04.885Z,5.85
2023-04-13T05:44:31.747Z,4.70
2023-04-13T05:47:01.475Z,2.10
2023-04-13T05:49:31.628Z,2.80
2023-04-13T05:51:58.700Z,3.10
2023-04-13T05:54:25.853Z,2.80
2023-04-13T05:56:52.650Z,2.92
2023-04-13T05:59:19.566Z,3.20
2023-04-13T06:01:46.640Z,3.33
2023-04-13T06:04:15.887Z,3.65
2023-04-13T06:06:45.650Z,3.97
2023-04-13T06:09:13.460Z,3.20
2023-04-13T06:11:40.593Z,3.50
2023-04-13T06:14:07.689Z,4.22
2023-04-13T06:16:34.600Z,2.38
2023-04-13T06:19:02.004Z,4.43
2023-04-13T06:21:30.348Z,2.85
2023-04-13T06:23:58.042Z,3.25
2023-04-13T06:26:25.974Z,4.10
2023-04-13T06:28:52.977Z,3.35
2023-04-13T06:31:21.264Z,5.60
2023-04-13T06:33:48.246Z,4.65
2023-04-13T06:36:15.104Z,3.92
2023-04-13T06:38:41.943Z,2.17
2023-04-13T06:41:08.838Z,2.60
2023-04-13T06:43:36.080Z,1.85
2023-04-13T06:46:04.592Z,1.17
2023-04-13T06:48:31.612Z,2.60
2023-04-13T06:50:59.871Z,3.78
2023-04-13T06:53:26.679Z,3.28
2023-04-13T06:55:54.529Z,2.50
2023-04-13T06:58:23.438Z,1.42
2023-04-13T07:00:50.476Z,1.00
2023-04-13T07:03:17.629Z,3.50
2023-04-13T07:05:47.463Z,1.48
2023-04-13T07:08:14.373Z,1.42
2023-04-13T07:10:41.278Z,2.42
2023-04-13T07:13:08.425Z,0.80
2023-04-13T07:15:37.870Z,2.28
2023-04-13T07:18:05.329Z,1.38
2023-04-13T07:20:32.206Z,0.73
2023-04-13T07:23:00.060Z,1.95
2023-04-13T07:25:27.289Z,1.05
2023-04-13T07:27:55.150Z,0.68
2023-04-13T07:30:22.156Z,0.55
2023-04-13T07:32:51.132Z,1.63
2023-04-13T07:35:19.537Z,0.50
2023-04-13T07:37:52.900Z,0.50
2023-04-13T07:40:20.489Z,1.88
2023-04-13T07:42:50.338Z,2.00
2023-04-13T07:45:18.242Z,1.98
2023-04-13T07:47:45.063Z,1.83
2023-04-13T07:50:12.026Z,3.65
2023-04-13T07:52:39.068Z,2.55
2023-04-13T07:55:07.553Z,3.03
2023-04-13T07:57:35.835Z,1.85
2023-04-13T08:00:07.052Z,1.15
2023-04-13T08:02:34.437Z,6.70
2023-04-13T08:05:01.694Z,4.18
2023-04-13T08:07:29.954Z,2.55
2023-04-13T08:09:56.814Z,4.40
2023-04-13T08:12:23.600Z,0.88
2023-04-13T08:14:50.392Z,2.47
2023-04-13T08:17:17.254Z,4.57
2023-04-13T08:19:44.117Z,2.65
2023-04-13T08:22:12.089Z,2.30
2023-04-13T08:24:38.938Z,3.47
2023-04-13T08:27:08.445Z,3.05
2023-04-13T08:29:35.238Z,2.53
2023-04-13T08:32:02.105Z,1.73
2023-04-13T08:34:29.349Z,3.15
2023-04-13T08:37:21.472Z,3.83
2023-04-13T08:39:52.774Z,3.28
2023-04-13T08:42:23.700Z,3.45
2023-04-13T08:44:53.475Z,3.75
2023-04-13T08:47:21.471Z,3.65
2023-04-13T08:49:52.751Z,7.22
2023-04-13T08:52:23.591Z,2.03
2023-04-13T08:54:57.969Z,1.33
2023-04-13T09:00:13.647Z,7.47
2023-04-13T09:03:02.945Z,4.25
2023-04-13T09:05:49.003Z,6.65
2023-04-13T09:16:44.517Z,4.32
2023-04-13T09:19:33.332Z,7.25
2023-04-13T09:24:45.192Z,5.88
2023-04-13T09:27:24.111Z,3.45
2023-04-13T09:29:58.369Z,3.40
2023-04-13T09:32:29.434Z,5.45
2023-04-13T09:35:08.396Z,3.75
2023-04-13T09:37:37.360Z,2.95
2023-04-13T09:40:19.014Z,3.30
2023-04-13T09:43:06.403Z,4.95
2023-04-13T09:45:38.407Z,5.28
2023-04-13T09:48:18.910Z,7.22
2023-04-13T09:50:46.514Z,7.20
2023-04-13T09:53:15.223Z,3.55
2023-04-13T09:55:44.911Z,4.60
2023-04-13T09:58:18.185Z,3.92
2023-04-13T10:00:46.713Z,6.97
2023-04-13T10:03:15.589Z,3.53
2023-04-13T10:05:58.681Z,4.13
2023-04-13T10:08:37.521Z,7.88
2023-04-13T10:11:17.074Z,5.60
2023-04-13T10:13:58.697Z,5.80
2023-04-13T10:16:55.274Z,8.65
2023-04-13T10:19:33.650Z,5.00
2023-04-13T10:22:01.964Z,5.78
2023-04-13T10:24:29.350Z,7.78
2023-04-13T10:27:06.434Z,4.32
2023-04-13T10:29:38.854Z,7.40
2023-04-13T10:32:08.095Z,3.20
2023-04-13T10:34:38.458Z,6.95
2023-04-13T10:45:45.570Z,8.98
2023-04-13T10:48:33.105Z,6.10
2023-04-13T10:51:14.102Z,5.82
2023-04-13T10:53:42.295Z,5.90
2023-04-13T10:56:24.383Z,9.27
2023-04-13T10:58:58.319Z,6.20
2023-04-13T11:04:04.486Z,4.93
2023-04-13T11:06:40.121Z,11.40
2023-04-13T11:11:44.814Z,9.23
2023-04-13T11:14:30.298Z,7.95
2023-04-13T11:17:07.212Z,8.00
2023-04-13T11:19:51.213Z,6.93
2023-04-13T11:25:17.617Z,8.50
2023-04-13T11:30:57.997Z,7.38
2023-04-13T11:33:25.833Z,5.75
2023-04-13T11:35:56.125Z,9.63
2023-04-13T11:38:26.186Z,13.65
2023-04-13T11:41:15.732Z,10.50
2023-04-13T11:43:53.467Z,7.32
2023-04-13T11:46:25.894Z,7.90
2023-04-13T11:48:53.373Z,8.35
2023-04-13T11:51:21.201Z,8.88
2023-04-13T11:53:54.725Z,10.38
2023-04-13T11:56:21.606Z,11.35
2023-04-13T11:58:52.202Z,7.03
2023-04-13T12:01:26.301Z,9.38
2023-04-13T12:04:12.938Z,8.63
2023-04-13T12:06:49.960Z,10.43
2023-04-13T12:09:54.531Z,9.45
2023-04-13T12:17:50.080Z,7.63
2023-04-13T12:22:57.708Z,9.35
2023-04-13T12:25:35.814Z,4.20
2023-04-13T12:28:13.035Z,6.57
2023-04-13T12:30:40.172Z,11.25
2023-04-13T12:33:08.287Z,8.07
2023-04-13T12:35:39.082Z,6.13
2023-04-13T12:38:11.483Z,6.63
2023-04-13T12:40:57.912Z,6.88
2023-04-13T12:43:29.926Z,5.40
2023-04-13T12:46:04.747Z,4.13
2023-04-13T12:51:25.452Z,4.72
2023-04-13T13:02:05.440Z,8.20
2023-04-13T13:07:36.129Z,10.45
2023-04-13T13:23:40.830Z,6.28
2023-04-13T13:29:32.337Z,8.45
2023-04-13T13:40:33.209Z,4.68
2023-04-13T13:42:59.991Z,5.85
2023-04-13T13:45:30.058Z,4.45
2023-04-13T13:47:58.432Z,5.50
2023-04-13T13:50:26.650Z,4.95
2023-04-13T13:53:02.614Z,10.40
2023-04-13T13:55:31.698Z,6.53
2023-04-13T13:57:59.407Z,6.20
2023-04-13T14:00:29.247Z,6.60
2023-04-13T14:03:01.386Z,5.30
2023-04-13T14:05:28.614Z,4.72
2023-04-13T14:08:00.794Z,5.47
2023-04-13T14:10:29.184Z,6.18
2023-04-13T14:12:58.583Z,6.53
2023-04-13T14:15:25.877Z,5.75
2023-04-13T14:18:09.094Z,4.88
2023-04-13T14:20:45.861Z,4.25
2023-04-13T14:25:59.329Z,5.40
2023-04-13T14:28:26.125Z,7.97
2023-04-13T14:30:56.354Z,5.40
2023-04-13T14:33:27.522Z,9.93
2023-04-13T14:35:59.476Z,5.97
2023-04-13T14:38:27.854Z,7.47
2023-04-13T14:43:49.894Z,9.43
2023-04-13T14:46:26.211Z,6.07
2023-04-13T14:48:53.460Z,10.02
2023-04-13T14:51:29.240Z,6.68
2023-04-13T14:54:10.162Z,4.25
2023-04-13T14:56:46.457Z,7.00
2023-04-13T14:59:19.732Z,7.03
2023-04-13T15:01:47.379Z,11.40
2023-04-13T15:04:18.192Z,7.00
2023-04-13T15:06:52.905Z,6.43
2023-04-13T15:09:25.208Z,6.18
2023-04-13T15:11:52.337Z,5.35
2023-04-13T15:14:20.376Z,8.30
2023-04-13T15:16:49.113Z,7.40
2023-04-13T15:19:17.144Z,7.57
2023-04-13T15:21:46.986Z,6.70
2023-04-13T15:24:14.189Z,7.15
2023-04-13T15:26:41.933Z,4.47
2023-04-13T15:29:11.503Z,6.07
2023-04-13T15:31:41.420Z,7.82
2023-04-13T15:37:41.276Z,5.10
2023-04-13T15:40:55.634Z,4.43
2023-04-13T15:43:22.522Z,7.45
2023-04-13T15:45:52.187Z,6.05
2023-04-13T15:48:19.733Z,8.77
2023-04-13T15:50:46.676Z,5.88
2023-04-13T15:53:13.553Z,8.48
2023-04-13T15:55:49.206Z,7.47
2023-04-13T15:58:17.669Z,8.45
2023-04-13T16:00:46.438Z,4.82
2023-04-13T16:03:14.604Z,7.18
2023-04-13T16:05:41.736Z,8.40
2023-04-13T16:08:09.896Z,5.43
2023-04-13T16:10:37.414Z,8.07
2023-04-13T16:13:08.021Z,5.75
2023-04-13T16:15:37.700Z,10.02
2023-04-13T16:18:05.014Z,6.63
2023-04-13T16:20:32.389Z,6.72
2023-04-13T16:23:02.567Z,10.82
2023-04-13T16:25:30.817Z,7.47
2023-04-13T16:34:26.139Z,4.65
2023-04-13T16:36:53.810Z,7.13
2023-04-13T16:39:21.968Z,9.90
2023-04-13T16:41:49.646Z,6.15
2023-04-13T16:44:17.739Z,4.40
2023-04-13T16:46:44.674Z,7.30
2023-04-13T16:49:11.654Z,7.85
2023-04-13T16:51:38.631Z,5.53
2023-04-13T16:54:06.626Z,7.20
2023-04-13T16:56:33.594Z,3.78
2023-04-13T16:59:01.379Z,7.35
2023-04-13T17:01:29.581Z,8.48
2023-04-13T17:03:58.364Z,6.25
2023-04-13T17:06:26.769Z,9.65
2023-04-13T17:09:00.573Z,9.38
2023-04-13T17:11:27.515Z,7.57
2023-04-13T17:13:54.313Z,5.65
2023-04-13T17:16:21.572Z,12.23
2023-04-13T17:18:48.510Z,10.00
2023-04-13T17:21:15.330Z,5.65
2023-04-13T17:23:43.574Z,11.20
2023-04-13T17:26:12.691Z,13.02
2023-04-13T17:28:39.803Z,9.68
2023-04-13T17:31:10.838Z,8.20
2023-04-13T17:33:38.184Z,6.97
2023-04-13T17:36:05.098Z,6.20
2023-04-13T17:38:31.897Z,8.82
2023-04-13T17:40:58.897Z,10.25
2023-04-13T17:43:27.324Z,9.90
2023-04-13T17:45:54.215Z,13.50
2023-04-13T17:48:23.975Z,10.50
2023-04-13T17:50:51.807Z,14.25
2023-04-13T17:53:18.652Z,15.85
2023-04-13T17:55:45.610Z,9.27
2023-04-13T17:58:12.867Z,9.52
2023-04-13T18:00:39.938Z,5.90
2023-04-13T18:03:09.592Z,10.13
2023-04-13T18:05:36.736Z,10.57
2023-04-13T18:08:03.797Z,9.90
2023-04-13T18:10:31.541Z,10.02
2023-04-13T18:13:01.347Z,10.98
2023-04-13T18:15:29.647Z,16.95
2023-04-13T18:17:56.544Z,11.65
2023-04-13T18:20:23.517Z,8.75
2023-04-13T18:22:51.747Z,11.27
2023-04-13T18:25:20.168Z,10.93
2023-04-13T18:27:47.466Z,10.88
2023-04-13T18:30:16.643Z,12.52
2023-04-13T18:32:43.499Z,5.22
2023-04-13T18:35:12.546Z,7.30
2023-04-13T18:37:39.620Z,5.38
2023-04-13T18:40:07.443Z,6.78
2023-04-13T18:42:34.502Z,7.03
2023-04-13T18:45:02.039Z,7.93
2023-04-13T18:47:28.937Z,5.85
2023-04-13T18:49:57.624Z,10.68
2023-04-13T18:52:26.048Z,8.07
2023-04-13T18:54:53.345Z,8.68
2023-04-13T18:57:20.256Z,6.57
2023-04-13T18:59:47.135Z,4.93
2023-04-13T19:02:16.851Z,11.45
2023-04-13T19:04:44.100Z,11.65
2023-04-13T19:07:11.056Z,6.10
2023-04-13T19:09:38.673Z,12.93
2023-04-13T19:12:06.774Z,7.18
2023-04-13T19:14:35.130Z,7.57
2023-04-13T19:17:03.242Z,3.20
2023-04-13T19:19:30.054Z,5.53
2023-04-13T19:21:58.397Z,7.35
2023-04-13T19:24:25.333Z,4.80
2023-04-13T19:26:52.185Z,5.60
2023-04-13T19:29:22.157Z,6.15
2023-04-13T19:31:50.275Z,4.60
2023-04-13T19:34:17.540Z,3.30
2023-04-13T19:36:47.005Z,4.70
2023-04-13T19:39:14.931Z,4.88
2023-04-13T19:41:42.025Z,4.57
2023-04-13T19:44:09.207Z,4.13
2023-04-13T19:46:36.475Z,4.10
2023-04-13T19:49:04.191Z,4.35
2023-04-13T19:51:32.986Z,5.35
2023-04-13T19:54:03.277Z,4.07
2023-04-13T19:56:36.653Z,5.57
2023-04-13T19:59:05.242Z,8.43
2023-04-13T20:01:33.960Z,6.07
2023-04-13T20:04:03.779Z,3.67
2023-04-13T20:06:33.522Z,2.40
2023-04-13T20:09:13.990Z,3.80
2023-04-13T20:11:44.134Z,4.47
2023-04-13T20:14:12.653Z,4.90
2023-04-13T20:16:39.558Z,3.03
2023-04-13T20:19:09.504Z,5.82
2023-04-13T20:21:36.812Z,2.47
2023-04-13T20:24:04.579Z,8.25
2023-04-13T20:26:33.021Z,3.30
2023-04-13T20:29:01.810Z,4.35
2023-04-13T20:31:30.777Z,3.63
2023-04-13T20:33:58.411Z,4.32
2023-04-13T20:36:25.794Z,3.88
2023-04-13T20:38:53.013Z,2.22
2023-04-13T20:41:22.012Z,4.88
2023-04-13T20:43:50.957Z,3.03
2023-04-13T20:46:17.865Z,4.18
2023-04-13T20:51:17.002Z,4.25
2023-04-13T20:53:44.084Z,4.65
2023-04-13T20:56:11.566Z,3.95
2023-04-13T20:58:38.752Z,4.90
2023-04-13T21:01:05.814Z,4.97
2023-04-13T21:03:33.167Z,5.75
2023-04-13T21:06:01.282Z,3.88
2023-04-13T21:08:28.214Z,3.58
2023-04-13T21:10:55.046Z,4.53
2023-04-13T21:13:22.291Z,3.15
2023-04-13T21:15:49.091Z,4.93
2023-04-13T21:18:16.120Z,4.88
2023-04-13T21:20:43.870Z,3.65
2023-04-13T21:23:12.035Z,6.30
2023-04-13T21:25:38.952Z,4.75
2023-04-13T21:28:05.837Z,5.25
2023-04-13T21:30:32.865Z,3.90
2023-04-13T21:32:59.755Z,3.75
2023-04-13T21:35:26.698Z,5.82
2023-04-13T21:37:53.478Z,4.43
2023-04-13T21:40:24.245Z,3.03
2023-04-13T21:42:51.242Z,3.80
2023-04-13T21:45:18.114Z,3.40
2023-04-13T21:47:47.174Z,3.38
2023-04-13T21:50:15.978Z,4.63
2023-04-13T21:52:42.834Z,2.38
2023-04-13T21:55:14.177Z,4.22
2023-04-13T21:57:43.358Z,3.88
2023-04-13T22:00:13.293Z,3.55
2023-04-13T22:02:42.096Z,3.35
2023-04-13T22:05:11.277Z,3.10
2023-04-13T22:07:44.424Z,4.75
2023-04-13T22:10:11.676Z,1.80
2023-04-13T22:12:38.715Z,3.33
2023-04-13T22:15:06.415Z,6.47
2023-04-13T22:17:33.692Z,3.38
2023-04-13T22:20:01.160Z,5.07
2023-04-13T22:22:27.973Z,7.50
2023-04-13T22:24:55.046Z,3.58
2023-04-13T22:27:22.278Z,3.42
2023-04-13T22:29:49.511Z,4.45
2023-04-13T22:32:16.810Z,2.78
2023-04-13T22:34:45.441Z,3.47
2023-04-13T22:37:15.161Z,3.58
2023-04-13T22:39:44.974Z,3.40
2023-04-13T22:42:13.075Z,4.22
2023-04-13T22:44:40.906Z,3.13
2023-04-13T22:47:08.729Z,5.63
2023-04-13T22:49:36.640Z,3.00
2023-04-13T22:52:03.617Z,2.50
2023-04-13T22:54:31.678Z,3.53
2023-04-13T22:57:02.832Z,5.35
2023-04-13T22:59:31.544Z,3.15
2023-04-13T23:01:59.441Z,4.72
2023-04-13T23:04:27.593Z,3.38
2023-04-13T23:06:54.473Z,2.42
2023-04-13T23:09:21.726Z,3.70
2023-04-13T23:11:51.086Z,6.03
2023-04-13T23:14:18.799Z,4.32
2023-04-13T23:16:48.335Z,9.48
2023-04-13T23:19:17.809Z,11.60
2023-04-13T23:21:45.870Z,8.70
2023-04-13T23:24:13.469Z,4.93
2023-04-13T23:26:43.155Z,7.45
2023-04-13T23:29:09.965Z,6.32
2023-04-13T23:31:36.903Z,3.85
2023-04-13T23:34:03.777Z,3.90
2023-04-13T23:36:34.175Z,5.72
2023-04-13T23:39:04.000Z,5.03
2023-04-13T23:41:30.960Z,4.43
2023-04-13T23:43:57.970Z,2.45
2023-04-13T23:46:25.118Z,3.80
2023-04-13T23:48:51.896Z,4.63
2023-04-13T23:51:18.693Z,4.47
2023-04-13T23:53:45.436Z,3.75
2023-04-13T23:56:13.318Z,2.58
2023-04-13T23:58:40.134Z,5.13
